Time;durP1;ratioP1;P1;durP2;ratioP2;P2;SDS_P1;SDS_P2;PMS_P1;PMS_P2;Temp;Humidity;BMP_temperature;BMP_pressure;BME280_temperature;BME280_humidity;BME280_pressure;Samples;Min_cycle;Max_cycle;Signal;HPM_P1;HPM_P2
2021/12/26 00:00:35;;;;;;;34.65;13.05;;;29.40;84.60;;;;;;5045952;28;20052;-45
2021/12/26 00:03:02;;;;;;;31.25;11.77;;;29.30;84.50;;;;;;5058295;28;20345;-45
2021/12/26 00:05:29;;;;;;;26.67;10.70;;;29.30;84.40;;;;;;5056528;28;20070;-45
2021/12/26 00:07:56;;;;;;;20.83;9.55;;;29.30;84.40;;;;;;5047105;28;20017;-46
2021/12/26 00:10:24;;;;;;;20.15;10.30;;;29.30;85.10;;;;;;5047497;28;20021;-44
2021/12/26 00:12:51;;;;;;;26.30;9.68;;;29.30;84.40;;;;;;5046923;28;20191;-43
2021/12/26 00:15:18;;;;;;;27.60;9.82;;;29.30;84.40;;;;;;5047195;28;20013;-47
2021/12/26 00:17:45;;;;;;;26.40;10.02;;;29.30;84.30;;;;;;5062478;28;20025;-46
2021/12/26 00:20:12;;;;;;;28.25;9.98;;;29.30;84.20;;;;;;5048138;28;20025;-45
2021/12/26 00:22:41;;;;;;;26.80;10.98;;;29.30;84.10;;;;;;5060753;28;20041;-45
2021/12/26 00:25:09;;;;;;;23.40;10.02;;;29.30;84.10;;;;;;5062895;28;20025;-48
2021/12/26 00:27:36;;;;;;;27.02;11.27;;;29.30;84.60;;;;;;5064648;28;20016;-44
2021/12/26 00:30:07;;;;;;;20.75;9.70;;;29.30;84.20;;;;;;5066004;28;20064;-46
2021/12/26 00:32:34;;;;;;;22.00;10.43;;;29.30;84.30;;;;;;5065910;28;20012;-47
2021/12/26 00:35:03;;;;;;;17.63;8.85;;;29.30;84.40;;;;;;5067025;28;20272;-47
2021/12/26 00:37:29;;;;;;;19.90;8.93;;;29.30;84.40;;;;;;5064950;28;20033;-53
2021/12/26 00:39:56;;;;;;;18.83;8.65;;;29.30;84.50;;;;;;5058102;28;20022;-42
2021/12/26 00:42:23;;;;;;;19.73;8.80;;;29.30;84.50;;;;;;5053680;28;20191;-45
2021/12/26 00:44:49;;;;;;;18.23;8.48;;;29.30;84.50;;;;;;5059612;28;20029;-43
2021/12/26 00:47:16;;;;;;;23.10;8.63;;;29.20;84.40;;;;;;5054888;28;20043;-44
2021/12/26 00:49:43;;;;;;;13.93;8.07;;;29.30;84.60;;;;;;5046511;28;20025;-45
2021/12/26 00:52:11;;;;;;;19.77;7.95;;;29.30;85.10;;;;;;5046536;28;20025;-45
2021/12/26 00:54:40;;;;;;;16.23;8.43;;;29.20;84.50;;;;;;5033585;28;20037;-53
2021/12/26 00:57:06;;;;;;;14.52;8.05;;;29.20;84.40;;;;;;5046157;28;20067;-43
2021/12/26 00:59:33;;;;;;;14.32;7.70;;;29.20;84.30;;;;;;5056406;28;20033;-44
2021/12/26 01:02:00;;;;;;;16.85;7.30;;;29.20;84.30;;;;;;5052217;28;20028;-47
2021/12/26 01:04:26;;;;;;;13.27;7.20;;;29.20;84.20;;;;;;5046538;28;20220;-40
2021/12/26 01:06:53;;;;;;;16.17;7.25;;;29.20;84.00;;;;;;5046392;28;20017;-44
2021/12/26 01:09:25;;;;;;;13.48;6.68;;;29.20;83.90;;;;;;5046347;28;20187;-43
2021/12/26 01:11:55;;;;;;;12.00;7.00;;;29.20;83.80;;;;;;5046129;28;20021;-41
2021/12/26 01:14:29;;;;;;;13.43;7.00;;;29.20;83.70;;;;;;5045675;28;20037;-45
2021/12/26 01:17:11;;;;;;;10.68;6.60;;;29.20;83.60;;;;;;5046003;28;20191;-45
2021/12/26 01:19:45;;;;;;;12.40;5.97;;;29.20;83.40;;;;;;5046348;28;20029;-50
2021/12/26 01:22:13;;;;;;;9.43;5.88;;;29.20;83.10;;;;;;5045914;28;20029;-42
2021/12/26 01:24:40;;;;;;;10.88;6.30;;;29.20;83.20;;;;;;5045930;28;20305;-49
2021/12/26 01:27:07;;;;;;;20.38;6.35;;;29.20;83.10;;;;;;5028311;28;20088;-42
2021/12/26 01:29:36;;;;;;;16.55;6.25;;;29.10;82.90;;;;;;5045934;28;20072;-40
2021/12/26 01:32:07;;;;;;;11.77;5.63;;;29.10;82.70;;;;;;5045762;28;20060;-47
2021/12/26 01:34:33;;;;;;;14.65;5.70;;;29.10;82.40;;;;;;5046202;28;20025;-40
2021/12/26 01:37:00;;;;;;;9.57;5.70;;;29.10;82.30;;;;;;5045583;28;20028;-51
2021/12/26 01:39:27;;;;;;;9.07;5.95;;;29.20;82.40;;;;;;5045627;28;20148;-49
2021/12/26 01:41:54;;;;;;;8.85;5.75;;;29.10;82.10;;;;;;5045518;28;20084;-42
2021/12/26 01:44:21;;;;;;;14.10;6.00;;;29.10;81.90;;;;;;5046015;28;20021;-46
2021/12/26 01:46:49;;;;;;;8.02;5.20;;;29.10;81.80;;;;;;5045525;28;20024;-45
2021/12/26 01:49:22;;;;;;;11.93;5.47;;;29.10;81.70;;;;;;5045695;28;20044;-48
2021/12/26 01:51:51;;;;;;;9.40;5.38;;;29.10;81.50;;;;;;5053833;28;20306;-43
2021/12/26 01:54:46;;;;;;;8.27;5.80;;;29.10;81.40;;;;;;5065168;28;20032;-45
2021/12/26 01:57:10;;;;;;;8.63;5.38;;;29.10;81.30;;;;;;5064357;28;20347;-51
2021/12/26 01:59:38;;;;;;;9.20;5.35;;;29.10;81.20;;;;;;5065606;28;20029;-51
2021/12/26 02:02:05;;;;;;;11.57;5.80;;;29.10;81.10;;;;;;5058895;28;20035;-47
2021/12/26 02:04:32;;;;;;;12.75;6.13;;;29.00;81.00;;;;;;5048679;28;20089;-46
2021/12/26 02:07:01;;;;;;;9.05;5.57;;;29.10;81.00;;;;;;5045153;28;20041;-46
2021/12/26 02:09:28;;;;;;;10.63;5.15;;;29.10;80.80;;;;;;5045111;28;20029;-48
2021/12/26 02:11:55;;;;;;;9.60;5.75;;;29.10;80.70;;;;;;5044920;28;20022;-51
2021/12/26 02:14:22;;;;;;;12.23;5.07;;;29.00;80.40;;;;;;5045313;28;20048;-44
2021/12/26 02:16:49;;;;;;;12.00;5.90;;;29.10;80.40;;;;;;5046779;28;20021;-47
2021/12/26 02:19:16;;;;;;;13.52;7.82;;;29.00;80.20;;;;;;5052210;28;20318;-44
2021/12/26 02:22:03;;;;;;;20.63;10.73;;;29.00;80.20;;;;;;5053240;28;20245;-51
2021/12/26 02:24:56;;;;;;;18.15;8.55;;;29.00;80.10;;;;;;5049337;28;20021;-45
2021/12/26 02:27:32;;;;;;;12.55;8.48;;;29.00;79.90;;;;;;5047678;28;20025;-51
2021/12/26 02:30:01;;;;;;;14.00;9.38;;;29.00;79.80;;;;;;5044599;28;20060;-45
2021/12/26 02:32:29;;;;;;;12.40;7.90;;;29.00;79.60;;;;;;5049075;28;20025;-49
2021/12/26 02:34:56;;;;;;;10.75;6.90;;;28.90;79.40;;;;;;5044817;28;20076;-47
2021/12/26 02:37:22;;;;;;;8.38;6.57;;;29.00;79.20;;;;;;5044379;28;20021;-44
2021/12/26 02:39:49;;;;;;;9.25;5.65;;;29.00;78.90;;;;;;5044493;28;20029;-49
2021/12/26 02:42:19;;;;;;;10.15;5.45;;;28.90;78.80;;;;;;5044175;28;20041;-51
2021/12/26 02:44:46;;;;;;;5.93;5.00;;;28.90;78.10;;;;;;5044694;28;20037;-49
2021/12/26 02:47:14;;;;;;;7.30;5.72;;;28.90;77.90;;;;;;5044395;28;20055;-52
2021/12/26 02:49:41;;;;;;;8.48;4.50;;;28.90;77.70;;;;;;5044469;28;20028;-48
2021/12/26 02:52:08;;;;;;;7.70;4.60;;;28.90;77.50;;;;;;5044283;28;20031;-49
2021/12/26 02:54:34;;;;;;;7.80;4.50;;;28.90;77.50;;;;;;5044199;28;20025;-42
2021/12/26 02:57:01;;;;;;;9.88;4.70;;;28.90;77.30;;;;;;5044129;28;20030;-46
2021/12/26 02:59:31;;;;;;;7.32;4.13;;;28.90;76.90;;;;;;5057001;28;20115;-48
2021/12/26 03:01:58;;;;;;;4.80;4.22;;;28.80;76.80;;;;;;5061299;28;20032;-49
2021/12/26 03:04:24;;;;;;;7.10;4.80;;;28.80;76.50;;;;;;5054273;28;20383;-46
2021/12/26 03:07:24;;;;;;;6.50;4.10;;;28.80;76.50;;;;;;5064020;28;20313;-46
2021/12/26 03:09:46;;;;;;;;;;;28.80;76.10;;;;;;5062282;28;20037;-53
2021/12/26 03:12:13;;;;;;;6.35;4.57;;;28.80;75.90;;;;;;5063720;28;19901;-42
2021/12/26 03:14:40;;;;;;;8.85;4.28;;;28.80;75.90;;;;;;5064230;28;20166;-49
2021/12/26 03:17:07;;;;;;;8.65;4.22;;;28.80;75.70;;;;;;5063169;28;20088;-52
2021/12/26 03:19:35;;;;;;;7.53;4.72;;;28.80;75.30;;;;;;5064198;28;20313;-44
2021/12/26 03:22:03;;;;;;;8.45;4.10;;;28.80;75.10;;;;;;5063705;28;20040;-46
2021/12/26 03:24:31;;;;;;;8.32;3.92;;;28.70;75.20;;;;;;5063949;28;20213;-53
2021/12/26 03:27:05;;;;;;;7.00;4.00;;;28.70;74.40;;;;;;5063693;28;20032;-48
2021/12/26 03:29:33;;;;;;;5.82;4.47;;;28.70;74.60;;;;;;5063763;28;20060;-50
2021/12/26 03:31:59;;;;;;;10.07;4.20;;;28.70;74.50;;;;;;5063636;28;20025;-56
2021/12/26 03:34:26;;;;;;;9.57;8.05;;;28.70;74.30;;;;;;5063992;28;20035;-41
2021/12/26 03:36:53;;;;;;;19.67;12.27;;;28.70;74.50;;;;;;5063338;28;20056;-44
2021/12/26 03:39:20;;;;;;;18.05;10.90;;;28.70;74.40;;;;;;5063793;28;20088;-45
2021/12/26 03:41:47;;;;;;;16.50;10.30;;;28.70;74.30;;;;;;5063577;28;20084;-47
2021/12/26 03:44:14;;;;;;;14.77;8.13;;;28.70;74.10;;;;;;5063817;28;20048;-46
2021/12/26 03:46:41;;;;;;;10.93;8.20;;;28.70;74.10;;;;;;5063424;28;20013;-50
2021/12/26 03:49:08;;;;;;;12.60;8.32;;;28.60;74.10;;;;;;5063667;28;20070;-51
2021/12/26 03:51:35;;;;;;;18.02;8.75;;;28.60;74.10;;;;;;5050624;28;20027;-53
2021/12/26 03:54:04;;;;;;;16.40;7.97;;;28.60;74.20;;;;;;5063527;28;20025;-48
2021/12/26 03:56:31;;;;;;;22.20;7.38;;;28.60;74.40;;;;;;5063726;28;20258;-43
2021/12/26 03:59:01;;;;;;;11.18;6.13;;;28.60;74.40;;;;;;5063614;28;20096;-51
2021/12/26 04:01:28;;;;;;;6.53;5.05;;;28.60;74.30;;;;;;5063320;28;20365;-48
2021/12/26 04:03:54;;;;;;;11.40;5.85;;;28.60;74.30;;;;;;5063656;28;20025;-51
2021/12/26 04:06:21;;;;;;;11.13;4.80;;;28.60;74.30;;;;;;5063409;28;20009;-45
2021/12/26 04:08:48;;;;;;;9.85;4.78;;;28.60;74.30;;;;;;5063447;28;20329;-45
2021/12/26 04:11:14;;;;;;;12.80;4.75;;;28.60;74.60;;;;;;5063408;28;20025;-46
2021/12/26 04:13:41;;;;;;;8.45;4.95;;;28.50;74.60;;;;;;5063563;28;20063;-50
2021/12/26 04:16:08;;;;;;;9.95;4.65;;;28.50;75.00;;;;;;5063088;28;20040;-52
2021/12/26 04:18:35;;;;;;;10.15;4.78;;;28.50;75.30;;;;;;5063488;28;20052;-48
2021/12/26 04:21:01;;;;;;;10.10;5.05;;;28.50;75.60;;;;;;5063214;28;20318;-49
2021/12/26 04:23:28;;;;;;;8.25;5.13;;;28.50;75.80;;;;;;5063157;28;20025;-49
2021/12/26 04:25:54;;;;;;;13.13;6.00;;;28.50;76.10;;;;;;5063275;28;20088;-46
2021/12/26 04:28:21;;;;;;;13.38;8.48;;;28.50;76.30;;;;;;5063360;28;20021;-47
2021/12/26 04:30:48;;;;;;;13.32;10.27;;;28.50;76.50;;;;;;5062843;28;20052;-51
2021/12/26 04:33:15;;;;;;;15.68;11.82;;;28.40;76.60;;;;;;5063185;28;20025;-48
2021/12/26 04:35:41;;;;;;;17.65;11.82;;;28.40;76.70;;;;;;5063183;28;20309;-51
2021/12/26 04:38:08;;;;;;;12.95;11.02;;;28.40;76.80;;;;;;5062845;28;20035;-46
2021/12/26 04:40:35;;;;;;;16.30;10.32;;;28.40;76.80;;;;;;5056536;28;20030;-49
2021/12/26 04:43:01;;;;;;;14.50;10.63;;;28.40;76.90;;;;;;5051898;28;20010;-47
2021/12/26 04:45:28;;;;;;;16.55;10.77;;;28.40;76.90;;;;;;5043014;28;20017;-49
2021/12/26 04:47:55;;;;;;;13.88;10.18;;;28.40;77.00;;;;;;5043384;28;20302;-51
2021/12/26 04:50:27;;;;;;;16.30;12.57;;;28.40;76.90;;;;;;5046631;28;20063;-44
2021/12/26 04:52:53;;;;;;;19.88;15.43;;;28.30;76.90;;;;;;5051402;28;20013;-44
2021/12/26 04:55:23;;;;;;;28.10;17.92;;;28.30;76.80;;;;;;5054718;28;20023;-45
2021/12/26 04:57:51;;;;;;;30.88;21.98;;;28.30;76.70;;;;;;5055011;28;20020;-44
2021/12/26 05:00:21;;;;;;;23.92;18.95;;;28.30;76.60;;;;;;5056358;28;20025;-43
2021/12/26 05:02:49;;;;;;;21.17;15.05;;;28.30;76.30;;;;;;5055592;28;20331;-42
2021/12/26 05:05:16;;;;;;;17.40;13.18;;;28.30;76.20;;;;;;5054206;28;20037;-44
2021/12/26 05:07:43;;;;;;;11.82;9.18;;;28.30;76.00;;;;;;5055735;28;20028;-53
2021/12/26 05:10:12;;;;;;;11.25;7.68;;;28.30;75.80;;;;;;5056108;28;20091;-43
2021/12/26 05:12:40;;;;;;;9.95;6.85;;;28.20;75.50;;;;;;5054157;28;20053;-47
2021/12/26 05:15:09;;;;;;;12.88;6.63;;;28.20;75.50;;;;;;5055577;28;20013;-43
2021/12/26 05:17:36;;;;;;;15.05;10.85;;;28.20;75.60;;;;;;5055994;28;20021;-48
2021/12/26 05:20:03;;;;;;;22.58;15.93;;;28.20;75.50;;;;;;5054885;28;20029;-50
2021/12/26 05:22:29;;;;;;;24.08;16.90;;;28.20;76.00;;;;;;5054460;28;20264;-47
2021/12/26 05:24:56;;;;;;;24.73;15.82;;;28.20;75.50;;;;;;5056366;28;20159;-46
2021/12/26 05:27:23;;;;;;;18.17;12.70;;;28.20;75.50;;;;;;5054413;28;20044;-45
2021/12/26 05:29:49;;;;;;;15.82;10.20;;;28.20;75.30;;;;;;5054526;28;20045;-54
2021/12/26 05:32:16;;;;;;;11.93;8.73;;;28.20;75.00;;;;;;5055864;28;20016;-41
2021/12/26 05:34:43;;;;;;;14.18;7.57;;;28.20;74.80;;;;;;5054643;28;20110;-43
2021/12/26 05:37:09;;;;;;;8.68;5.97;;;28.20;74.80;;;;;;5054285;28;20024;-51
2021/12/26 05:39:36;;;;;;;8.73;5.63;;;28.20;74.60;;;;;;5055976;28;20048;-43
2021/12/26 05:42:03;;;;;;;6.57;5.05;;;28.10;74.40;;;;;;5053996;28;20083;-49
2021/12/26 05:44:30;;;;;;;7.18;5.10;;;28.10;74.10;;;;;;5054301;28;20040;-52
2021/12/26 05:46:56;;;;;;;5.93;4.40;;;28.10;74.40;;;;;;5055408;28;20020;-50
2021/12/26 05:49:23;;;;;;;7.03;5.43;;;28.10;73.90;;;;;;5054402;28;20245;-45
2021/12/26 05:51:50;;;;;;;9.18;5.45;;;28.10;73.80;;;;;;5053975;28;20017;-41
2021/12/26 05:54:16;;;;;;;7.63;5.53;;;28.10;73.90;;;;;;5055587;28;20020;-46
2021/12/26 05:56:43;;;;;;;6.30;5.15;;;28.00;74.00;;;;;;5053843;28;20225;-49
2021/12/26 05:59:09;;;;;;;8.95;5.10;;;28.10;74.00;;;;;;5053732;28;20059;-46
2021/12/26 06:01:36;;;;;;;8.93;4.60;;;28.00;74.00;;;;;;5055200;28;20079;-45
2021/12/26 06:04:03;;;;;;;14.75;5.15;;;28.00;73.90;;;;;;5053996;28;20088;-50
2021/12/26 06:06:29;;;;;;;9.65;5.45;;;28.00;74.00;;;;;;5053815;28;20021;-43
2021/12/26 06:08:56;;;;;;;10.35;5.10;;;28.00;74.10;;;;;;5055326;28;20012;-49
2021/12/26 06:11:23;;;;;;;6.50;4.40;;;28.00;74.20;;;;;;5053498;28;20025;-47
2021/12/26 06:13:49;;;;;;;5.78;3.97;;;28.00;74.10;;;;;;5053740;28;20355;-46
2021/12/26 06:16:16;;;;;;;7.63;4.00;;;27.90;74.00;;;;;;5054899;28;20100;-46
2021/12/26 06:18:42;;;;;;;7.63;4.63;;;27.90;74.20;;;;;;5053548;28;20060;-46
2021/12/26 06:21:09;;;;;;;10.63;5.53;;;27.90;74.20;;;;;;5035908;28;20021;-43
2021/12/26 06:23:35;;;;;;;8.82;6.00;;;27.90;74.10;;;;;;5054970;28;20095;-45
2021/12/26 06:26:02;;;;;;;6.20;5.22;;;27.90;74.20;;;;;;5053230;28;20029;-43
2021/12/26 06:28:28;;;;;;;7.75;4.70;;;27.90;74.30;;;;;;5053660;28;20017;-47
2021/12/26 06:30:55;;;;;;;8.30;4.43;;;27.90;74.30;;;;;;5069909;28;20056;-50
2021/12/26 06:33:22;;;;;;;5.35;3.80;;;27.80;74.30;;;;;;5053134;28;20022;-45
2021/12/26 06:35:50;;;;;;;7.30;3.88;;;27.80;74.50;;;;;;5053489;28;20013;-47
2021/12/26 06:38:17;;;;;;;7.82;3.88;;;27.80;74.40;;;;;;5054367;28;20093;-47
2021/12/26 06:40:43;;;;;;;6.68;4.00;;;27.80;74.50;;;;;;5052960;28;20030;-46
2021/12/26 06:43:11;;;;;;;6.85;4.55;;;27.80;74.30;;;;;;5053157;28;20020;-46
2021/12/26 06:45:38;;;;;;;6.47;3.95;;;27.80;74.30;;;;;;5054435;28;20005;-47
2021/12/26 06:48:06;;;;;;;8.13;4.07;;;27.80;74.20;;;;;;5052961;28;20076;-52
2021/12/26 06:50:33;;;;;;;7.00;3.80;;;27.70;73.90;;;;;;5052505;28;20025;-49
2021/12/26 06:53:00;;;;;;;4.80;3.70;;;27.70;74.00;;;;;;5054261;28;20013;-47
2021/12/26 06:55:26;;;;;;;8.50;3.58;;;27.70;73.90;;;;;;5053206;28;20014;-47
2021/12/26 06:57:53;;;;;;;6.10;3.45;;;27.70;73.80;;;;;;5052427;28;20205;-48
2021/12/26 07:00:20;;;;;;;8.75;3.78;;;27.70;73.90;;;;;;5055043;28;20044;-52
2021/12/26 07:02:46;;;;;;;6.30;3.72;;;27.70;73.90;;;;;;5053209;28;20024;-49
2021/12/26 07:05:14;;;;;;;9.52;3.95;;;27.70;73.90;;;;;;5054441;28;20040;-57
2021/12/26 07:07:41;;;;;;;5.97;3.45;;;27.70;73.90;;;;;;5054840;28;20085;-49
2021/12/26 07:10:09;;;;;;;5.95;3.35;;;27.70;73.90;;;;;;5053414;28;20029;-45
2021/12/26 07:12:36;;;;;;;8.20;3.42;;;27.60;73.90;;;;;;5053309;28;20220;-47
2021/12/26 07:15:03;;;;;;;3.60;3.00;;;27.60;73.50;;;;;;5052655;28;20033;-53
2021/12/26 07:17:30;;;;;;;6.18;3.58;;;27.60;73.30;;;;;;5052510;28;20021;-45
2021/12/26 07:19:57;;;;;;;10.82;3.40;;;27.60;73.10;;;;;;5054363;28;20031;-43
2021/12/26 07:22:24;;;;;;;5.60;3.38;;;27.60;72.80;;;;;;5034428;28;20108;-45
2021/12/26 07:24:50;;;;;;;6.82;2.97;;;27.60;73.10;;;;;;5052726;28;20079;-46
2021/12/26 07:27:17;;;;;;;5.63;3.08;;;27.60;72.40;;;;;;5054150;28;20009;-49
2021/12/26 07:29:44;;;;;;;8.20;2.70;;;27.50;72.10;;;;;;5067686;28;20119;-46
2021/12/26 07:32:11;;;;;;;3.45;2.90;;;27.60;71.90;;;;;;5052423;28;20021;-49
2021/12/26 07:34:40;;;;;;;4.55;3.22;;;27.50;71.80;;;;;;5054192;28;20088;-42
2021/12/26 07:37:07;;;;;;;4.85;3.30;;;27.50;71.80;;;;;;5050844;28;20037;-49
2021/12/26 07:39:34;;;;;;;7.88;3.25;;;27.50;71.90;;;;;;5053870;28;20096;-50
2021/12/26 07:42:01;;;;;;;5.60;3.13;;;27.50;71.80;;;;;;5051801;28;20064;-47
2021/12/26 07:44:28;;;;;;;4.45;3.20;;;27.50;71.90;;;;;;5052885;28;20017;-48
2021/12/26 07:46:55;;;;;;;5.38;3.20;;;27.50;71.90;;;;;;5053711;28;20225;-52
2021/12/26 07:49:23;;;;;;;4.00;2.80;;;27.40;72.00;;;;;;5052154;28;20018;-46
2021/12/26 07:51:50;;;;;;;4.82;3.00;;;27.50;72.20;;;;;;5052200;28;20014;-49
2021/12/26 07:54:18;;;;;;;10.77;3.40;;;27.50;72.20;;;;;;5053758;28;20025;-48
2021/12/26 07:56:44;;;;;;;8.10;3.30;;;27.40;72.00;;;;;;5052050;28;20198;-43
2021/12/26 07:59:11;;;;;;;5.10;3.08;;;27.40;71.90;;;;;;5052280;28;20035;-49
2021/12/26 08:01:38;;;;;;;9.65;3.50;;;27.40;71.90;;;;;;5053493;28;20024;-41
2021/12/26 08:04:05;;;;;;;5.47;2.95;;;27.40;72.00;;;;;;5052283;28;20025;-58
2021/12/26 08:06:32;;;;;;;4.65;3.17;;;27.40;72.00;;;;;;5051827;28;20042;-51
2021/12/26 08:08:59;;;;;;;7.65;3.13;;;27.40;72.30;;;;;;5053676;28;20269;-50
2021/12/26 08:11:26;;;;;;;9.55;3.50;;;27.40;72.50;;;;;;5052106;28;20021;-45
2021/12/26 08:13:52;;;;;;;7.38;3.47;;;27.30;72.60;;;;;;5051893;28;20029;-46
2021/12/26 08:16:19;;;;;;;6.53;2.92;;;27.30;72.50;;;;;;5053326;28;20017;-41
2021/12/26 08:18:46;;;;;;;4.45;3.20;;;27.30;72.50;;;;;;5052128;28;20093;-45
2021/12/26 08:21:12;;;;;;;5.80;3.35;;;27.30;72.50;;;;;;5051491;28;20172;-48
2021/12/26 08:23:39;;;;;;;6.07;3.15;;;27.30;72.60;;;;;;5056368;28;20020;-40
2021/12/26 08:26:05;;;;;;;4.75;3.30;;;27.30;72.70;;;;;;5055705;28;20035;-43
2021/12/26 08:28:32;;;;;;;4.65;3.22;;;27.30;73.00;;;;;;5055473;28;20187;-48
2021/12/26 08:30:59;;;;;;;7.07;3.42;;;27.30;73.20;;;;;;5056948;28;20072;-49
2021/12/26 08:33:26;;;;;;;5.65;3.22;;;27.30;73.40;;;;;;5055641;28;20095;-44
2021/12/26 08:35:53;;;;;;;6.75;3.58;;;27.20;73.30;;;;;;5055300;28;20036;-49
2021/12/26 08:38:22;;;;;;;6.53;3.50;;;27.20;73.30;;;;;;5057176;28;20036;-47
2021/12/26 08:40:56;;;;;;;4.50;3.13;;;27.20;73.40;;;;;;5055977;28;20033;-47
2021/12/26 08:43:23;;;;;;;5.18;3.47;;;27.20;73.50;;;;;;5057480;28;20021;-49
2021/12/26 08:45:50;;;;;;;5.85;3.30;;;27.20;73.60;;;;;;5055492;28;20248;-46
2021/12/26 08:48:17;;;;;;;4.38;3.15;;;27.20;73.80;;;;;;5056647;28;20189;-50
2021/12/26 08:50:45;;;;;;;5.88;3.67;;;27.20;73.80;;;;;;5055024;28;20314;-49
2021/12/26 08:53:12;;;;;;;5.70;3.28;;;27.20;73.90;;;;;;5055381;28;20044;-50
2021/12/26 08:55:39;;;;;;;4.88;3.38;;;27.20;73.80;;;;;;5056645;28;20076;-48
2021/12/26 08:58:06;;;;;;;4.10;3.28;;;27.20;73.70;;;;;;5061995;28;20209;-42
2021/12/26 09:00:35;;;;;;;4.50;3.30;;;27.20;73.60;;;;;;5066409;28;20017;-44
2021/12/26 09:03:01;;;;;;;6.43;3.20;;;27.20;73.50;;;;;;5066697;28;20013;-46
2021/12/26 09:05:28;;;;;;;5.45;3.28;;;27.20;73.40;;;;;;5066318;28;20317;-44
2021/12/26 09:07:55;;;;;;;6.63;3.05;;;27.10;73.30;;;;;;5066308;28;20055;-46
2021/12/26 09:10:22;;;;;;;6.40;3.00;;;27.20;73.30;;;;;;5066334;28;20013;-48
2021/12/26 09:12:48;;;;;;;6.93;3.30;;;27.10;73.20;;;;;;5066107;28;20020;-53
2021/12/26 09:15:15;;;;;;;6.65;3.35;;;27.20;73.30;;;;;;5066645;28;20032;-46
2021/12/26 09:17:42;;;;;;;4.57;3.15;;;27.10;73.10;;;;;;5066385;28;20084;-47
2021/12/26 09:20:09;;;;;;;4.35;3.42;;;27.10;73.10;;;;;;5066433;28;20259;-45
2021/12/26 09:22:36;;;;;;;4.93;3.25;;;27.10;73.00;;;;;;5065957;28;20053;-50
2021/12/26 09:25:04;;;;;;;5.45;2.90;;;27.10;72.70;;;;;;5066463;28;20087;-46
2021/12/26 09:27:31;;;;;;;5.35;3.22;;;27.10;72.50;;;;;;5065761;28;20217;-47
2021/12/26 09:29:57;;;;;;;5.93;2.80;;;27.10;72.40;;;;;;5065943;28;20361;-51
2021/12/26 09:32:24;;;;;;;5.97;3.00;;;27.10;72.30;;;;;;5065933;28;20020;-45
2021/12/26 09:34:50;;;;;;;5.82;3.05;;;27.10;72.00;;;;;;5065502;28;20024;-48
2021/12/26 09:37:17;;;;;;;4.25;2.70;;;27.10;71.80;;;;;;5065737;28;20036;-52
2021/12/26 09:39:43;;;;;;;5.07;2.80;;;27.10;71.90;;;;;;5066157;28;20035;-52
2021/12/26 09:42:10;;;;;;;4.15;2.78;;;27.10;71.40;;;;;;5065615;28;20209;-48
2021/12/26 09:44:38;;;;;;;3.60;2.65;;;27.10;71.40;;;;;;5064739;28;20021;-47
2021/12/26 09:47:05;;;;;;;5.78;2.47;;;27.10;71.20;;;;;;5065601;28;20309;-46
2021/12/26 09:49:33;;;;;;;5.72;2.80;;;27.10;71.40;;;;;;5065852;28;20052;-51
2021/12/26 09:51:59;;;;;;;5.82;2.45;;;27.10;71.10;;;;;;5065532;28;20028;-46
2021/12/26 09:54:26;;;;;;;3.65;2.75;;;27.10;71.20;;;;;;5065794;28;20024;-45
2021/12/26 09:56:52;;;;;;;6.22;2.55;;;27.10;71.20;;;;;;5065406;28;20067;-47
2021/12/26 09:59:23;;;;;;;8.25;3.28;;;27.10;71.10;;;;;;5065511;28;20104;-49
2021/12/26 10:01:56;;;;;;;3.92;2.63;;;27.10;71.00;;;;;;5065290;28;20024;-43
2021/12/26 10:04:23;;;;;;;5.85;2.88;;;27.10;71.10;;;;;;5065414;28;20029;-51
2021/12/26 10:07:02;;;;;;;10.77;2.78;;;27.10;71.00;;;;;;5065283;28;20059;-49
2021/12/26 10:09:29;;;;;;;6.53;2.85;;;27.10;71.00;;;;;;5065434;28;20179;-45
2021/12/26 10:11:59;;;;;;;6.95;2.80;;;27.10;70.90;;;;;;5064685;28;20021;-46
2021/12/26 10:14:33;;;;;;;8.18;3.20;;;27.00;71.40;;;;;;5065126;28;20027;-49
2021/12/26 10:17:04;;;;;;;6.72;2.70;;;27.00;72.10;;;;;;5064648;28;20078;-49
2021/12/26 10:19:40;;;;;;;8.90;2.90;;;27.00;72.50;;;;;;5065354;28;20025;-48
2021/12/26 10:22:10;;;;;;;9.73;3.53;;;27.00;72.70;;;;;;5064546;28;20317;-44
2021/12/26 10:24:40;;;;;;;5.25;2.83;;;27.00;72.90;;;;;;5065270;28;20037;-46
2021/12/26 10:27:07;;;;;;;9.45;3.28;;;27.00;72.90;;;;;;5064854;28;20013;-49
2021/12/26 10:29:39;;;;;;;7.22;2.78;;;27.00;72.80;;;;;;5064790;28;20044;-47
2021/12/26 10:32:17;;;;;;;5.00;2.95;;;27.00;72.90;;;;;;5064756;28;20017;-46
2021/12/26 10:34:55;;;;;;;8.48;3.20;;;27.00;72.80;;;;;;5065030;28;20033;-49
2021/12/26 10:37:29;;;;;;;9.27;3.42;;;27.00;72.80;;;;;;5064717;28;20016;-48
2021/12/26 10:40:11;;;;;;;10.23;3.40;;;27.00;72.90;;;;;;5064989;28;20070;-49
2021/12/26 10:42:40;;;;;;;9.13;3.90;;;27.00;73.00;;;;;;5064467;28;20028;-51
2021/12/26 10:45:18;;;;;;;7.90;3.50;;;27.00;73.00;;;;;;5064802;28;20035;-47
2021/12/26 10:47:53;;;;;;;7.65;3.30;;;27.00;73.20;;;;;;5063763;28;20367;-50
2021/12/26 10:50:22;;;;;;;7.78;3.60;;;27.00;73.20;;;;;;5064414;28;20032;-45
2021/12/26 10:52:55;;;;;;;8.88;3.70;;;27.00;73.20;;;;;;5063610;28;20021;-52
2021/12/26 10:55:27;;;;;;;;;;;27.00;73.40;;;;;;5064762;28;20379;-55
2021/12/26 10:57:54;;;;;;;9.27;4.20;;;27.00;73.70;;;;;;5064205;28;19947;-49
2021/12/26 11:00:26;;;;;;;14.23;4.22;;;27.00;74.00;;;;;;5063953;28;20032;-43
2021/12/26 11:03:01;;;;;;;11.82;4.82;;;27.00;74.40;;;;;;5063702;28;20024;-51
2021/12/26 11:05:35;;;;;;;8.23;4.65;;;27.00;74.80;;;;;;5064009;28;20313;-51
2021/12/26 11:08:05;;;;;;;12.55;4.60;;;27.00;75.20;;;;;;5064061;28;20213;-48
2021/12/26 11:10:33;;;;;;;6.88;4.25;;;27.00;76.00;;;;;;5064084;28;20021;-56
2021/12/26 11:13:02;;;;;;;12.50;4.80;;;27.00;76.20;;;;;;5063767;28;20020;-44
2021/12/26 11:15:41;;;;;;;16.85;4.85;;;27.00;76.50;;;;;;5064095;28;20112;-47
2021/12/26 11:18:10;;;;;;;16.73;5.03;;;27.00;76.80;;;;;;5063668;28;20076;-45
2021/12/26 11:20:52;;;;;;;11.02;4.82;;;27.00;77.40;;;;;;5063843;28;20082;-46
2021/12/26 11:23:22;;;;;;;8.95;5.47;;;27.10;77.90;;;;;;5063785;28;20070;-50
2021/12/26 11:25:54;;;;;;;13.63;4.97;;;27.10;78.10;;;;;;5063867;28;20044;-45
2021/12/26 11:28:28;;;;;;;12.48;5.55;;;27.00;78.30;;;;;;5063948;28;20023;-55
2021/12/26 11:31:04;;;;;;;8.20;5.00;;;27.10;78.50;;;;;;5063494;28;20059;-51
2021/12/26 11:33:32;;;;;;;11.90;5.20;;;27.10;79.40;;;;;;5063575;28;20021;-50
2021/12/26 11:36:00;;;;;;;12.13;5.35;;;27.10;79.00;;;;;;5062890;28;20029;-45
2021/12/26 11:38:28;;;;;;;13.23;5.13;;;27.10;79.00;;;;;;5055010;28;20082;-48
2021/12/26 11:41:00;;;;;;;11.70;5.70;;;27.10;78.90;;;;;;5043591;28;20024;-47
2021/12/26 11:43:56;;;;;;;13.95;6.20;;;27.10;78.70;;;;;;5043629;28;20021;-48
2021/12/26 11:46:54;;;;;;;8.82;5.82;;;27.10;78.70;;;;;;5043673;28;20021;-50
2021/12/26 11:49:42;;;;;;;10.05;6.10;;;27.10;78.70;;;;;;5043920;28;20029;-49
2021/12/26 11:52:29;;;;;;;9.30;6.05;;;27.10;78.90;;;;;;5025958;28;20029;-47
2021/12/26 11:55:19;;;;;;;7.85;5.22;;;27.10;79.00;;;;;;5053564;28;20119;-48
2021/12/26 11:58:16;;;;;;;10.70;5.47;;;27.10;78.70;;;;;;5064990;28;20031;-47
2021/12/26 12:00:53;;;;;;;9.55;4.97;;;27.00;78.40;;;;;;5065665;28;20029;-45
2021/12/26 12:03:22;;;;;;;8.93;4.45;;;27.10;78.20;;;;;;5067403;28;20025;-50
2021/12/26 12:05:50;;;;;;;13.18;4.70;;;27.00;77.90;;;;;;5067421;28;20017;-48
2021/12/26 12:08:25;;;;;;;16.58;4.50;;;27.10;77.80;;;;;;5067474;28;20298;-49
2021/12/26 12:10:57;;;;;;;20.77;5.03;;;27.10;78.40;;;;;;5067299;28;20048;-50
2021/12/26 12:13:26;;;;;;;;;;;27.00;79.30;;;;;;5067904;28;20032;-44
2021/12/26 12:15:55;;;;;;;24.63;8.88;;;27.00;81.40;;;;;;5067103;28;19935;-47
2021/12/26 12:18:23;;;;;;;27.85;8.10;;;27.00;82.40;;;;;;5067040;28;20088;-50
2021/12/26 12:21:11;;;;;;;29.15;9.10;;;27.00;83.00;;;;;;5050055;28;20010;-43
2021/12/26 12:24:01;;;;;;;23.92;8.05;;;27.00;83.60;;;;;;5052165;28;20036;-45
2021/12/26 12:26:46;;;;;;;18.90;8.48;;;26.90;83.90;;;;;;5064922;28;20130;-54
2021/12/26 12:29:24;;;;;;;21.52;9.00;;;26.90;84.20;;;;;;5054071;28;20201;-48
2021/12/26 12:32:09;;;;;;;18.85;7.43;;;26.90;84.70;;;;;;5066125;28;20029;-49
2021/12/26 12:34:55;;;;;;;14.75;6.65;;;26.90;84.80;;;;;;5067318;28;20020;-49
2021/12/26 12:37:47;;;;;;;14.95;6.35;;;26.80;84.70;;;;;;5066804;28;20016;-46
2021/12/26 12:40:38;;;;;;;13.80;6.15;;;26.80;85.30;;;;;;5067073;28;20079;-44
2021/12/26 12:43:16;;;;;;;13.80;5.97;;;26.80;85.00;;;;;;5066816;28;20021;-46
2021/12/26 12:45:55;;;;;;;12.88;5.50;;;26.80;85.00;;;;;;5066626;28;20036;-53
2021/12/26 12:48:24;;;;;;;12.07;5.53;;;26.80;85.20;;;;;;5066721;28;20110;-50
2021/12/26 12:50:53;;;;;;;12.82;5.20;;;26.80;85.30;;;;;;5066484;28;20254;-50
2021/12/26 12:54:03;;;;;;;10.73;5.10;;;26.70;85.70;;;;;;5066646;28;20025;-45